Time;durP1;ratioP1;P1;durP2;ratioP2;P2;SDS_P1;SDS_P2;PMS_P1;PMS_P2;Temp;Humidity;BMP_temperature;BMP_pressure;BME280_temperature;BME280_humidity;BME280_pressure;Samples;Min_cycle;Max_cycle;Signal;HPM_P1;HPM_P2
2022/05/26 05:45:00;;;;;;;1.20;1.20;;;18.90;43.20;;;;;;21332;6532;67626;-84
2022/05/26 05:47:25;;;;;;;0.97;0.97;;;18.60;43.20;;;;;;20827;6821;119365;-84
2022/05/26 05:49:51;;;;;;;1.00;1.00;;;18.30;43.60;;;;;;20816;6825;117089;-86
2022/05/26 05:52:18;;;;;;;3.20;1.25;;;18.10;43.90;;;;;;20668;6820;127803;-85
2022/05/26 05:54:43;;;;;;;6.32;1.30;;;18.00;44.10;;;;;;20433;6878;311055;-80
2022/05/26 05:57:12;;;;;;;2.37;1.00;;;18.30;43.70;;;;;;20453;6879;311917;-88
2022/05/26 05:59:39;;;;;;;1.43;1.33;;;18.70;43.20;;;;;;20617;6891;117873;-86
2022/05/26 06:02:04;;;;;;;1.47;1.20;;;18.70;43.10;;;;;;20430;6874;321958;-85
2022/05/26 06:04:32;;;;;;;1.37;1.27;;;19.30;42.80;;;;;;20463;6874;279654;-83
2022/05/26 06:06:59;;;;;;;1.73;1.00;;;19.30;42.70;;;;;;20653;6878;115845;-86
2022/05/26 06:09:24;;;;;;;1.20;1.10;;;19.20;43.10;;;;;;20663;6878;118396;-88
2022/05/26 06:11:49;;;;;;;1.20;1.10;;;19.10;43.00;;;;;;20428;6878;310465;-85
2022/05/26 06:14:15;;;;;;;2.08;1.20;;;19.40;42.40;;;;;;20431;6878;310045;-81
2022/05/26 06:16:44;;;;;;;0.98;0.85;;;19.90;42.00;;;;;;20670;6878;117475;-83
2022/05/26 06:19:08;;;;;;;1.50;0.90;;;19.90;42.00;;;;;;20573;6902;117874;-82
2022/05/26 06:21:34;;;;;;;1.07;0.97;;;20.10;43.10;;;;;;20632;6886;118091;-82
2022/05/26 06:24:00;;;;;;;1.00;1.00;;;20.00;43.00;;;;;;20642;6882;117383;-83
2022/05/26 06:26:25;;;;;;;1.80;1.10;;;20.50;43.10;;;;;;20626;6882;120421;-84
2022/05/26 06:31:36;;;;;;;1.20;0.87;;;21.90;39.50;;;;;;20637;6882;117044;-83
2022/05/26 06:39:33;;;;;;;1.40;0.97;;;23.50;39.30;;;;;;20456;6882;312278;-83
2022/05/26 06:42:09;;;;;;;1.10;0.95;;;24.40;36.00;;;;;;20453;6882;308748;-83
2022/05/26 06:44:40;;;;;;;0.80;0.80;;;25.30;34.60;;;;;;20652;6882;117666;-83
2022/05/26 06:47:05;;;;;;;1.10;1.07;;;25.50;35.30;;;;;;20644;6882;117694;-87
2022/05/26 06:49:32;;;;;;;1.53;0.90;;;25.60;35.60;;;;;;20656;6876;118593;-91
2022/05/26 06:51:58;;;;;;;1.30;1.20;;;25.60;35.50;;;;;;20667;6876;117377;-83
2022/05/26 06:54:24;;;;;;;5.70;1.10;;;25.70;35.50;;;;;;20446;6874;325225;-85
2022/05/26 06:56:49;;;;;;;1.67;1.03;;;26.20;32.60;;;;;;20668;6875;118190;-87
2022/05/26 06:59:15;;;;;;;1.20;1.10;;;26.30;32.90;;;;;;20686;6876;117378;-85
2022/05/26 07:01:40;;;;;;;1.93;1.20;;;26.30;33.00;;;;;;20703;6876;117635;-91
2022/05/26 07:04:06;;;;;;;2.97;0.90;;;26.10;32.90;;;;;;20700;6876;116928;-85
2022/05/26 07:06:32;;;;;;;1.58;0.90;;;26.10;31.40;;;;;;20476;6876;305999;-86
2022/05/26 07:08:58;;;;;;;2.90;0.97;;;26.10;31.40;;;;;;20510;6876;278062;-90
2022/05/26 07:11:24;;;;;;;0.80;0.80;;;26.30;31.20;;;;;;20502;6876;340534;-87
2022/05/26 07:13:50;;;;;;;1.10;1.00;;;26.50;30.80;;;;;;20651;6876;117573;-88
2022/05/26 07:16:17;;;;;;;2.07;0.80;;;26.20;31.20;;;;;;20645;6876;119937;-89
2022/05/26 07:18:42;;;;;;;2.00;1.00;;;25.80;31.80;;;;;;20465;6876;293417;-84
2022/05/26 07:21:08;;;;;;;1.30;0.85;;;25.80;30.90;;;;;;20674;6876;117859;-87
2022/05/26 07:23:34;;;;;;;1.08;0.70;;;25.60;31.60;;;;;;20677;6876;117899;-84
2022/05/26 07:26:03;;;;;;;1.90;1.00;;;24.60;32.70;;;;;;20673;6876;118444;-84
2022/05/26 07:28:29;;;;;;;1.62;1.00;;;24.60;32.70;;;;;;20457;6876;338065;-86
2022/05/26 07:30:54;;;;;;;1.23;1.00;;;24.60;33.00;;;;;;20683;6876;121944;-87
2022/05/26 07:33:21;;;;;;;1.60;1.00;;;24.40;33.30;;;;;;20447;6876;309522;-89
2022/05/26 07:35:47;;;;;;;1.60;0.82;;;24.50;33.20;;;;;;20459;6876;309259;-87
2022/05/26 07:41:17;;;;;;;1.33;0.73;;;25.10;33.50;;;;;;20664;6876;67043;-85
2022/05/26 07:43:43;;;;;;;1.20;0.77;;;25.00;33.60;;;;;;20456;6876;309068;-87
2022/05/26 07:46:09;;;;;;;1.17;0.77;;;25.20;33.60;;;;;;20648;6876;128077;-87
2022/05/26 07:48:34;;;;;;;2.97;0.70;;;25.10;33.60;;;;;;20680;6876;118225;-84
2022/05/26 07:50:59;;;;;;;1.90;0.90;;;25.00;33.80;;;;;;20464;6876;280878;-84
2022/05/26 07:53:25;;;;;;;0.80;0.80;;;25.10;33.10;;;;;;20687;6876;118685;-85
2022/05/26 07:55:51;;;;;;;0.63;0.63;;;25.20;33.40;;;;;;20686;6876;119292;-88
2022/05/26 07:58:16;;;;;;;0.60;0.60;;;25.20;33.60;;;;;;20649;6876;119662;-87
2022/05/26 08:00:42;;;;;;;1.85;0.85;;;25.20;33.60;;;;;;20472;6876;282073;-83
2022/05/26 08:03:08;;;;;;;2.83;0.90;;;25.60;32.10;;;;;;20461;6876;279384;-86
2022/05/26 08:05:33;;;;;;;1.50;0.67;;;25.90;31.60;;;;;;20673;6876;117328;-83
2022/05/26 08:07:59;;;;;;;1.20;0.80;;;25.90;32.00;;;;;;20474;6874;308027;-83
2022/05/26 08:10:24;;;;;;;2.37;0.80;;;26.10;31.90;;;;;;20446;6876;306604;-85
2022/05/26 08:12:51;;;;;;;1.00;0.70;;;26.40;31.50;;;;;;20481;6876;310261;-83
2022/05/26 08:15:16;;;;;;;0.90;0.70;;;26.60;30.50;;;;;;20467;6876;308891;-85
2022/05/26 08:17:42;;;;;;;1.97;0.80;;;26.60;30.20;;;;;;20710;6876;117418;-83
2022/05/26 08:20:08;;;;;;;1.02;0.68;;;26.40;30.80;;;;;;20674;6876;117606;-87
2022/05/26 08:22:33;;;;;;;0.50;0.50;;;26.30;31.50;;;;;;20654;6876;117426;-86
2022/05/26 08:25:00;;;;;;;0.70;0.65;;;26.10;31.90;;;;;;20677;6876;118519;-88
2022/05/26 08:27:26;;;;;;;0.50;0.50;;;26.10;32.10;;;;;;20672;6876;118018;-86
2022/05/26 08:29:54;;;;;;;0.77;0.40;;;26.10;31.90;;;;;;20493;6876;282953;-94
2022/05/26 08:32:19;;;;;;;1.30;0.57;;;26.60;31.20;;;;;;20652;6876;117803;-90
2022/05/26 08:34:44;;;;;;;0.50;0.40;;;26.60;31.20;;;;;;20665;6876;117823;-88
2022/05/26 08:37:13;;;;;;;2.90;0.57;;;26.90;31.70;;;;;;20675;6876;118956;-90
2022/05/26 08:39:39;;;;;;;0.68;0.68;;;27.10;31.80;;;;;;20446;6876;339002;-91
2022/05/26 08:42:04;;;;;;;0.57;0.55;;;27.80;30.80;;;;;;20661;6876;117480;-89
2022/05/26 08:44:30;;;;;;;0.50;0.50;;;28.20;30.20;;;;;;20451;6876;313757;-91
2022/05/26 08:47:01;;;;;;;0.90;0.70;;;28.60;29.30;;;;;;20438;6876;279126;-90
2022/05/26 08:49:24;;;;;;;0.63;0.60;;;28.90;28.40;;;;;;20430;6876;341018;-88
2022/05/26 08:51:58;;;;;;;1.37;0.50;;;29.00;28.30;;;;;;20442;6876;308328;-88
2022/05/26 08:54:28;;;;;;;1.03;0.70;;;29.00;28.10;;;;;;20417;6876;309829;-86
2022/05/26 08:56:57;;;;;;;1.60;0.80;;;28.70;27.90;;;;;;20420;6876;308928;-88
2022/05/26 08:59:31;;;;;;;0.83;0.70;;;28.70;27.80;;;;;;20656;6876;117307;-86
2022/05/26 09:01:57;;;;;;;0.57;0.47;;;28.20;28.40;;;;;;20630;6876;117905;-86
2022/05/26 09:04:22;;;;;;;0.77;0.60;;;27.60;29.10;;;;;;20429;6876;278643;-88
2022/05/26 09:15:05;;;;;;;0.80;0.63;;;27.80;28.90;;;;;;20445;6876;310055;-87
2022/05/26 09:17:31;;;;;;;1.40;0.60;;;27.80;29.30;;;;;;20448;6874;278745;-86
2022/05/26 09:19:58;;;;;;;1.00;0.60;;;27.80;29.30;;;;;;20447;6875;308478;-88
2022/05/26 09:22:35;;;;;;;0.70;0.70;;;27.90;29.30;;;;;;20622;6876;118878;-88
2022/05/26 09:25:01;;;;;;;0.65;0.55;;;27.80;29.70;;;;;;20453;6876;280020;-87
2022/05/26 09:27:30;;;;;;;0.57;0.50;;;27.70;29.40;;;;;;20436;6876;309166;-86
2022/05/26 09:30:02;;;;;;;0.80;0.50;;;27.80;29.60;;;;;;20445;6876;310062;-86
2022/05/26 09:32:31;;;;;;;0.50;0.47;;;27.90;28.90;;;;;;20327;6876;119212;-87
2022/05/26 09:35:06;;;;;;;1.30;0.40;;;27.60;29.20;;;;;;20660;6876;117823;-87
2022/05/26 09:37:36;;;;;;;0.43;0.30;;;27.10;29.80;;;;;;20643;6876;117579;-87
2022/05/26 09:40:22;;;;;;;0.57;0.50;;;27.00;29.70;;;;;;20638;6876;120153;-87
2022/05/26 09:43:08;;;;;;;0.62;0.55;;;26.80;30.00;;;;;;20117;6876;280080;-86
2022/05/26 09:45:39;;;;;;;0.90;0.70;;;27.00;29.90;;;;;;20409;6876;332998;-87
2022/05/26 09:48:05;;;;;;;1.77;0.70;;;27.30;29.60;;;;;;20515;6876;117959;-89
2022/05/26 09:50:33;;;;;;;0.73;0.40;;;27.20;29.80;;;;;;20416;6876;279667;-87
2022/05/26 09:52:59;;;;;;;0.50;0.50;;;27.30;29.60;;;;;;20663;6876;117599;-88
2022/05/26 09:55:32;;;;;;;1.40;0.40;;;27.20;29.70;;;;;;20450;6876;279059;-87
2022/05/26 09:58:03;;;;;;;0.87;0.70;;;27.20;29.60;;;;;;20612;6876;117937;-86
2022/05/26 10:00:47;;;;;;;0.63;0.50;;;27.00;29.90;;;;;;20450;6876;280032;-84
2022/05/26 10:03:32;;;;;;;0.60;0.60;;;27.00;29.90;;;;;;20453;6876;307537;-86
2022/05/26 10:06:15;;;;;;;0.63;0.50;;;27.20;29.90;;;;;;20698;6876;119045;-87
2022/05/26 10:08:59;;;;;;;0.60;0.60;;;27.00;29.90;;;;;;20496;6876;279444;-88
2022/05/26 10:11:45;;;;;;;0.60;0.43;;;26.60;30.00;;;;;;20649;6876;117413;-87
2022/05/26 10:14:20;;;;;;;1.27;0.50;;;26.60;30.00;;;;;;19605;7223;120025;-84
2022/05/26 10:16:59;;;;;;;0.53;0.50;;;26.10;30.40;;;;;;19597;7232;119223;-86
2022/05/26 10:19:27;;;;;;;1.10;0.60;;;25.80;31.00;;;;;;19542;6896;312539;-87
2022/05/26 10:22:20;;;;;;;0.50;0.50;;;26.00;31.70;;;;;;20583;6866;117459;-88
2022/05/26 10:24:55;;;;;;;0.67;0.50;;;25.90;31.40;;;;;;20441;6881;311282;-89
2022/05/26 10:27:22;;;;;;;0.97;0.60;;;26.00;31.40;;;;;;20646;6881;119722;-85
2022/05/26 10:30:04;;;;;;;0.60;0.60;;;26.00;31.40;;;;;;20300;6874;119296;-87
2022/05/26 10:32:29;;;;;;;0.70;0.50;;;25.80;31.50;;;;;;20417;6875;283149;-86
2022/05/26 10:35:05;;;;;;;1.87;0.40;;;26.00;31.60;;;;;;20627;6875;117483;-90
2022/05/26 10:38:11;;;;;;;0.40;0.40;;;26.00;31.60;;;;;;20673;6875;117897;-86
2022/05/26 10:40:52;;;;;;;0.70;0.50;;;25.80;31.70;;;;;;20455;6875;308292;-88
2022/05/26 10:43:38;;;;;;;0.70;0.70;;;26.10;31.70;;;;;;20451;6875;308720;-89
2022/05/26 10:46:06;;;;;;;0.77;0.60;;;26.40;32.50;;;;;;20438;6875;280594;-87
2022/05/26 10:48:42;;;;;;;0.90;0.60;;;26.60;31.00;;;;;;20441;6875;311779;-87
2022/05/26 10:51:08;;;;;;;0.47;0.40;;;26.60;30.90;;;;;;20639;6875;118883;-87
2022/05/26 10:53:46;;;;;;;0.63;0.63;;;26.60;30.90;;;;;;20639;6875;114143;-89
2022/05/26 10:56:10;;;;;;;0.63;0.63;;;26.30;31.20;;;;;;20616;6875;117709;-88
2022/05/26 10:58:42;;;;;;;1.00;0.70;;;26.10;31.60;;;;;;20414;6875;312286;-88
2022/05/26 11:01:15;;;;;;;0.53;0.53;;;26.30;31.30;;;;;;20646;6875;117901;-91
2022/05/26 11:03:40;;;;;;;0.60;0.60;;;26.30;31.30;;;;;;20268;6875;120735;-88
2022/05/26 11:06:09;;;;;;;1.25;0.70;;;26.10;31.50;;;;;;20632;6875;118545;-89
2022/05/26 11:08:35;;;;;;;1.67;0.63;;;25.90;31.90;;;;;;20462;6875;116718;-88
2022/05/26 11:11:14;;;;;;;0.70;0.70;;;25.80;32.30;;;;;;20416;6875;341322;-88
2022/05/26 11:17:21;;;;;;;0.70;0.57;;;25.90;32.00;;;;;;20622;6875;117418;-87
2022/05/26 11:19:44;;;;;;;2.03;0.67;;;25.70;32.20;;;;;;20742;6875;67334;-88
2022/05/26 11:22:10;;;;;;;1.03;0.63;;;25.40;32.30;;;;;;20690;6875;117302;-88
2022/05/26 11:24:35;;;;;;;1.30;0.60;;;25.10;32.70;;;;;;20690;6875;117784;-87
2022/05/26 11:27:04;;;;;;;1.08;0.60;;;24.90;32.90;;;;;;20714;6875;117007;-87
2022/05/26 11:29:29;;;;;;;0.63;0.63;;;24.80;33.30;;;;;;20714;6875;116563;-90
2022/05/26 11:37:36;;;;;;;2.30;0.70;;;24.60;33.90;;;;;;20455;6875;307557;-88
2022/05/26 11:40:02;;;;;;;1.08;0.73;;;25.00;34.00;;;;;;20483;6875;307447;-89
2022/05/26 11:42:31;;;;;;;0.60;0.60;;;25.30;33.30;;;;;;20545;6875;118149;-88
2022/05/26 11:45:16;;;;;;;0.77;0.70;;;25.20;32.90;;;;;;20462;6868;305423;-87
2022/05/26 11:47:58;;;;;;;0.70;0.70;;;25.20;33.00;;;;;;20714;6866;116491;-87
2022/05/26 11:50:47;;;;;;;0.98;0.90;;;25.00;33.20;;;;;;20405;6881;338531;-87
2022/05/26 11:53:12;;;;;;;0.70;0.70;;;24.90;33.40;;;;;;20633;6881;119076;-87
2022/05/26 11:55:48;;;;;;;1.03;0.50;;;24.50;33.90;;;;;;20546;6881;117919;-87
2022/05/26 11:58:27;;;;;;;0.50;0.50;;;24.50;33.90;;;;;;20434;6866;280870;-86
2022/05/26 12:00:52;;;;;;;1.03;0.70;;;24.70;34.40;;;;;;20465;6866;278576;-86
2022/05/26 12:03:25;;;;;;;0.65;0.50;;;25.00;34.10;;;;;;20561;6881;117653;-87
2022/05/26 12:06:11;;;;;;;1.10;0.70;;;25.00;33.90;;;;;;20466;6866;280745;-89
2022/05/26 12:08:40;;;;;;;0.83;0.57;;;25.00;33.90;;;;;;20737;6866;69395;-88
2022/05/26 12:11:07;;;;;;;0.70;0.67;;;24.70;34.00;;;;;;20687;6881;116596;-86
2022/05/26 12:13:32;;;;;;;0.88;0.65;;;24.50;34.40;;;;;;20672;6869;117568;-87
2022/05/26 12:16:18;;;;;;;0.80;0.80;;;24.30;34.80;;;;;;20641;6875;117509;-88
2022/05/26 12:18:56;;;;;;;0.73;0.63;;;24.30;35.00;;;;;;20679;6866;119839;-86
2022/05/26 12:21:28;;;;;;;0.67;0.67;;;24.40;35.10;;;;;;20622;6881;117824;-88
2022/05/26 12:23:58;;;;;;;0.97;0.70;;;24.60;35.20;;;;;;20682;6866;114795;-87
2022/05/26 12:26:30;;;;;;;0.83;0.83;;;24.80;35.20;;;;;;20588;6866;117472;-86
2022/05/26 12:29:17;;;;;;;0.70;0.70;;;25.00;35.20;;;;;;20378;6881;279547;-89
2022/05/26 12:32:06;;;;;;;0.87;0.70;;;25.70;34.50;;;;;;20067;6866;67077;-88
2022/05/26 12:34:32;;;;;;;1.10;0.70;;;25.70;34.50;;;;;;20678;6866;117500;-87
2022/05/26 12:36:57;;;;;;;0.57;0.50;;;25.70;34.30;;;;;;20619;6881;117602;-89
2022/05/26 12:39:32;;;;;;;0.85;0.80;;;25.70;34.50;;;;;;20462;6866;286494;-86
2022/05/26 12:42:20;;;;;;;0.80;0.63;;;26.00;33.50;;;;;;20434;6866;311259;-88
2022/05/26 12:45:16;;;;;;;0.70;0.70;;;26.40;32.80;;;;;;20637;6881;118503;-89
2022/05/26 12:48:04;;;;;;;1.03;0.90;;;26.40;32.50;;;;;;20420;6881;309165;-87
2022/05/26 12:50:31;;;;;;;0.97;0.70;;;26.60;32.50;;;;;;20438;6875;279830;-88
2022/05/26 12:52:55;;;;;;;1.02;0.88;;;26.90;31.90;;;;;;20654;6874;117432;-88
2022/05/26 12:55:28;;;;;;;1.80;0.80;;;26.90;32.10;;;;;;20433;6875;282138;-88
2022/05/26 12:57:53;;;;;;;0.70;0.70;;;26.90;32.00;;;;;;20658;6875;117775;-88
2022/05/26 13:00:25;;;;;;;1.07;0.80;;;26.80;32.20;;;;;;20624;6875;120369;-88
2022/05/26 13:02:51;;;;;;;0.87;0.80;;;26.30;32.30;;;;;;20542;6875;117517;-87
2022/05/26 13:05:17;;;;;;;0.70;0.63;;;26.30;32.30;;;;;;20638;6875;117724;-87
2022/05/26 13:07:43;;;;;;;1.00;0.80;;;26.20;32.30;;;;;;20519;6875;278050;-88
2022/05/26 13:10:08;;;;;;;0.70;0.70;;;26.20;32.40;;;;;;20706;6875;117788;-87
2022/05/26 13:12:34;;;;;;;2.40;0.97;;;26.30;32.40;;;;;;20687;6875;117691;-91
2022/05/26 13:14:59;;;;;;;1.55;0.80;;;26.20;32.60;;;;;;20447;6875;305163;-87
2022/05/26 13:17:25;;;;;;;1.35;0.85;;;26.40;32.00;;;;;;20649;6875;120892;-87
2022/05/26 13:19:57;;;;;;;1.30;0.90;;;26.50;32.00;;;;;;20442;6875;279329;-87
2022/05/26 13:22:34;;;;;;;1.27;0.80;;;26.60;31.90;;;;;;20419;6875;280901;-88
2022/05/26 13:25:03;;;;;;;1.10;1.00;;;26.80;31.80;;;;;;20424;6875;294509;-89
2022/05/26 13:27:28;;;;;;;0.80;0.80;;;27.00;31.30;;;;;;20441;6875;309433;-87
2022/05/26 13:29:54;;;;;;;1.20;0.83;;;27.10;31.10;;;;;;20390;6875;279990;-88
2022/05/26 13:35:05;;;;;;;0.97;0.90;;;27.20;31.10;;;;;;20443;6875;312254;-91
2022/05/26 13:37:31;;;;;;;0.87;0.73;;;27.20;30.60;;;;;;20603;6875;118368;-88
2022/05/26 13:40:13;;;;;;;0.80;0.70;;;26.90;31.10;;;;;;20445;6875;294041;-86
2022/05/26 13:42:38;;;;;;;2.77;0.70;;;26.80;31.30;;;;;;20639;6875;117920;-87
2022/05/26 13:45:05;;;;;;;0.50;0.50;;;26.60;31.60;;;;;;20555;6875;118444;-85
2022/05/26 13:47:31;;;;;;;1.25;0.88;;;26.30;32.00;;;;;;20413;6875;309150;-86
2022/05/26 13:50:04;;;;;;;0.60;0.60;;;26.30;31.90;;;;;;20685;6875;117422;-85
2022/05/26 13:52:30;;;;;;;0.80;0.70;;;26.30;32.00;;;;;;20664;6875;117643;-85
2022/05/26 13:54:56;;;;;;;2.50;0.80;;;25.70;32.20;;;;;;20664;6875;117545;-85
2022/05/26 13:57:32;;;;;;;1.40;0.80;;;25.70;32.20;;;;;;20666;6875;118184;-85
2022/05/26 13:59:57;;;;;;;1.30;0.80;;;25.50;32.60;;;;;;20456;6875;296439;-85
2022/05/26 14:02:32;;;;;;;0.80;0.80;;;25.60;33.80;;;;;;20647;6875;118704;-85
2022/05/26 14:05:12;;;;;;;1.23;0.70;;;25.70;33.10;;;;;;20457;6873;308650;-85
2022/05/26 14:07:45;;;;;;;0.80;0.80;;;25.90;32.50;;;;;;20662;6875;120578;-85
2022/05/26 14:10:21;;;;;;;1.80;0.97;;;25.90;32.60;;;;;;20642;6875;120538;-87
2022/05/26 14:12:47;;;;;;;0.80;0.80;;;25.70;32.70;;;;;;20667;6875;116606;-85
2022/05/26 14:15:14;;;;;;;0.70;0.70;;;25.60;32.40;;;;;;20417;6875;310969;-85
2022/05/26 14:17:39;;;;;;;1.07;0.70;;;25.60;33.00;;;;;;20673;6875;117434;-85
2022/05/26 14:20:25;;;;;;;1.08;0.82;;;25.60;33.30;;;;;;20417;6875;307900;-86
2022/05/26 14:22:52;;;;;;;0.60;0.60;;;25.80;33.50;;;;;;19591;7236;119341;-84
2022/05/26 14:25:19;;;;;;;0.75;0.70;;;25.80;32.90;;;;;;20427;6860;314861;-86
2022/05/26 14:28:08;;;;;;;0.73;0.70;;;25.80;33.40;;;;;;20723;6860;122098;-86
2022/05/26 14:30:39;;;;;;;0.50;0.50;;;25.80;33.40;;;;;;20694;6860;123045;-86
2022/05/26 14:33:21;;;;;;;1.73;0.73;;;25.60;33.50;;;;;;20509;6860;287253;-84
2022/05/26 14:35:48;;;;;;;0.75;0.75;;;25.70;33.00;;;;;;20499;6860;307385;-85
2022/05/26 14:38:14;;;;;;;0.70;0.70;;;26.00;32.30;;;;;;20484;6860;311198;-85
2022/05/26 14:40:39;;;;;;;1.10;0.80;;;26.10;32.80;;;;;;20505;6860;337144;-83
2022/05/26 14:43:06;;;;;;;1.02;0.93;;;26.30;33.40;;;;;;20524;6860;280050;-87
2022/05/26 14:45:31;;;;;;;1.00;0.83;;;26.30;32.60;;;;;;20709;6860;118031;-90
2022/05/26 14:47:58;;;;;;;0.63;0.63;;;26.10;32.50;;;;;;20733;6860;114483;-91
2022/05/26 14:50:22;;;;;;;0.83;0.83;;;25.80;32.80;;;;;;20519;6860;278617;-87
2022/05/26 14:52:48;;;;;;;0.83;0.80;;;25.80;33.20;;;;;;20765;6860;117887;-87
2022/05/26 14:55:27;;;;;;;1.50;0.67;;;25.70;33.10;;;;;;20559;6860;279977;-87
2022/05/26 14:57:52;;;;;;;0.80;0.80;;;25.70;32.90;;;;;;20770;6860;119619;-88
2022/05/26 15:00:18;;;;;;;0.73;0.50;;;25.40;33.20;;;;;;20730;6860;116375;-86
2022/05/26 15:02:43;;;;;;;1.23;0.70;;;25.10;33.80;;;;;;20536;6860;306941;-87
2022/05/26 15:05:12;;;;;;;1.12;0.90;;;25.20;34.00;;;;;;20540;6860;307818;-86
2022/05/26 15:07:38;;;;;;;0.70;0.70;;;25.40;33.90;;;;;;20739;6860;115614;-85
2022/05/26 15:10:04;;;;;;;2.12;0.62;;;25.30;33.80;;;;;;20736;6860;117987;-87
2022/05/26 15:12:29;;;;;;;1.00;1.00;;;25.00;34.10;;;;;;20751;6860;117111;-85
2022/05/26 15:14:55;;;;;;;1.63;1.00;;;24.70;34.30;;;;;;20706;6860;117473;-84
2022/05/26 15:17:20;;;;;;;1.57;0.60;;;24.50;34.50;;;;;;20725;6859;121520;-86
2022/05/26 15:19:49;;;;;;;0.75;0.68;;;24.30;34.80;;;;;;20503;6860;306984;-84
2022/05/26 15:22:14;;;;;;;1.17;0.60;;;24.40;34.60;;;;;;20694;6860;118057;-86
2022/05/26 15:24:40;;;;;;;1.43;0.80;;;24.40;34.40;;;;;;20720;6860;118460;-85
2022/05/26 15:27:06;;;;;;;0.77;0.73;;;24.00;34.50;;;;;;20703;6860;117410;-84
2022/05/26 15:29:32;;;;;;;0.90;0.87;;;24.00;34.50;;;;;;20718;6860;118807;-84
2022/05/26 15:31:57;;;;;;;2.12;0.80;;;23.80;34.90;;;;;;20706;6860;117380;-85
2022/05/26 15:34:23;;;;;;;0.80;0.80;;;23.70;35.10;;;;;;20701;6860;118111;-84
2022/05/26 15:36:50;;;;;;;0.93;0.70;;;23.60;35.10;;;;;;20500;6860;298898;-85
2022/05/26 15:39:14;;;;;;;1.60;0.90;;;23.90;34.80;;;;;;20488;6860;338572;-85
2022/05/26 15:41:41;;;;;;;0.93;0.82;;;24.20;34.20;;;;;;20496;6860;308881;-84
2022/05/26 15:44:07;;;;;;;1.17;0.90;;;24.60;33.60;;;;;;20476;6860;298437;-85
2022/05/26 15:46:36;;;;;;;1.13;0.80;;;24.80;33.80;;;;;;20709;6860;118914;-85
2022/05/26 15:49:02;;;;;;;0.93;0.90;;;24.60;34.00;;;;;;20481;6860;282245;-86
2022/05/26 15:51:27;;;;;;;1.37;0.77;;;24.60;34.60;;;;;;20707;6860;118968;-84
2022/05/26 15:53:52;;;;;;;1.30;0.63;;;24.60;34.60;;;;;;20724;6860;117495;-84
2022/05/26 15:56:18;;;;;;;0.75;0.75;;;24.30;34.60;;;;;;20491;6860;310102;-84
2022/05/26 15:58:43;;;;;;;1.80;1.10;;;24.40;34.70;;;;;;20704;6860;117232;-84
2022/05/26 16:01:10;;;;;;;0.60;0.60;;;24.40;34.50;;;;;;20704;6860;117259;-85
2022/05/26 16:03:36;;;;;;;0.73;0.73;;;23.90;34.50;;;;;;20710;6860;117454;-85
2022/05/26 16:06:04;;;;;;;1.80;0.80;;;24.00;34.80;;;;;;20504;6860;309793;-85
2022/05/26 16:08:29;;;;;;;1.40;0.83;;;24.00;34.70;;;;;;20321;6860;306332;-85
2022/05/26 16:10:56;;;;;;;0.90;0.80;;;24.30;34.60;;;;;;20506;6860;283643;-85
2022/05/26 16:13:22;;;;;;;1.93;0.90;;;24.50;33.50;;;;;;20504;6860;310002;-84
2022/05/26 16:15:49;;;;;;;1.00;0.90;;;24.40;32.70;;;;;;20720;6860;117936;-84
2022/05/26 16:18:14;;;;;;;1.70;0.80;;;24.30;32.60;;;;;;20515;6860;278465;-85
2022/05/26 16:20:39;;;;;;;1.23;0.80;;;24.30;32.90;;;;;;20774;6860;118529;-85
2022/05/26 16:23:05;;;;;;;1.90;0.80;;;24.10;33.30;;;;;;20565;6860;309166;-84
2022/05/26 16:25:30;;;;;;;1.48;0.85;;;24.10;33.30;;;;;;20502;6860;345460;-84
2022/05/26 16:27:56;;;;;;;1.00;0.90;;;24.30;33.80;;;;;;20523;6859;294398;-84
2022/05/26 16:30:22;;;;;;;1.17;0.80;;;24.50;33.30;;;;;;20481;6860;309923;-85
2022/05/26 16:32:48;;;;;;;0.70;0.70;;;24.40;33.20;;;;;;20711;6860;117633;-85
2022/05/26 16:38:01;;;;;;;0.70;0.70;;;23.80;33.90;;;;;;20498;6860;308044;-85
2022/05/26 16:40:26;;;;;;;0.67;0.67;;;23.80;34.50;;;;;;20683;6860;120642;-87
2022/05/26 16:42:53;;;;;;;0.97;0.77;;;23.70;34.50;;;;;;20705;6860;120149;-84
2022/05/26 16:45:17;;;;;;;1.08;0.98;;;23.40;35.20;;;;;;20485;6860;308146;-85
2022/05/26 16:47:43;;;;;;;1.40;0.77;;;23.40;34.10;;;;;;20504;6860;311134;-84
2022/05/26 16:50:09;;;;;;;0.70;0.70;;;23.70;33.80;;;;;;20478;6860;311497;-85
2022/05/26 16:52:34;;;;;;;0.67;0.67;;;23.90;33.70;;;;;;20709;6860;119944;-85
2022/05/26 16:55:01;;;;;;;0.77;0.60;;;23.70;33.90;;;;;;20712;6860;121682;-86
2022/05/26 16:57:27;;;;;;;0.77;0.77;;;23.40;34.50;;;;;;20507;6860;278829;-85
2022/05/26 16:59:52;;;;;;;0.83;0.83;;;23.40;34.90;;;;;;20712;6860;120122;-84
2022/05/26 17:02:18;;;;;;;0.70;0.70;;;23.30;34.90;;;;;;20693;6860;118074;-84
2022/05/26 17:04:44;;;;;;;1.40;0.90;;;23.10;35.10;;;;;;20718;6860;119210;-85
2022/05/26 17:07:10;;;;;;;0.97;0.80;;;22.90;35.30;;;;;;20503;6860;308744;-84
2022/05/26 17:09:37;;;;;;;0.87;0.80;;;23.00;35.30;;;;;;20721;6860;117603;-84
2022/05/26 17:12:02;;;;;;;0.63;0.63;;;23.00;35.30;;;;;;20713;6860;118760;-86
2022/05/26 17:22:44;;;;;;;0.90;0.90;;;22.70;36.10;;;;;;20503;6860;308888;-86
2022/05/26 17:25:10;;;;;;;1.23;0.83;;;23.00;35.80;;;;;;20715;6860;119580;-83
2022/05/26 17:27:35;;;;;;;1.02;0.98;;;23.00;35.90;;;;;;20491;6860;311601;-85
2022/05/26 17:30:01;;;;;;;1.63;0.90;;;23.00;35.80;;;;;;20710;6860;120094;-87
2022/05/26 17:32:27;;;;;;;1.10;0.70;;;22.90;35.80;;;;;;20468;6860;315241;-88
2022/05/26 17:34:52;;;;;;;1.08;0.90;;;23.00;35.50;;;;;;20505;6860;338819;-85
2022/05/26 17:37:18;;;;;;;0.93;0.80;;;23.20;35.80;;;;;;20485;6860;305358;-87
2022/05/26 17:39:44;;;;;;;0.73;0.73;;;23.20;35.60;;;;;;20713;6859;117484;-85
2022/05/26 17:42:10;;;;;;;1.10;0.83;;;23.20;35.60;;;;;;20482;6860;340092;-84
2022/05/26 17:44:36;;;;;;;1.00;1.00;;;23.20;35.40;;;;;;20704;6860;118779;-85
2022/05/26 17:47:04;;;;;;;0.70;0.70;;;23.00;35.40;;;;;;20717;6860;117824;-86
2022/05/26 17:49:29;;;;;;;0.90;0.90;;;22.70;35.70;;;;;;20716;6860;116873;-88
2022/05/26 17:51:55;;;;;;;0.98;0.73;;;22.40;35.90;;;;;;20497;6860;307660;-86
2022/05/26 17:54:24;;;;;;;1.37;1.00;;;22.60;36.40;;;;;;20470;6860;281401;-88
2022/05/26 17:56:50;;;;;;;0.97;0.73;;;22.80;36.00;;;;;;20689;6860;117863;-89
2022/05/26 17:59:16;;;;;;;0.80;0.80;;;22.70;36.00;;;;;;20501;6860;280515;-87
2022/05/26 18:01:42;;;;;;;1.13;1.03;;;22.70;36.40;;;;;;20688;6860;117721;-89
2022/05/26 18:04:08;;;;;;;0.70;0.70;;;22.70;36.40;;;;;;20480;6860;341260;-88
2022/05/26 18:06:33;;;;;;;0.93;0.90;;;22.80;36.30;;;;;;20498;6860;341877;-90
2022/05/26 18:09:00;;;;;;;0.80;0.80;;;22.90;35.90;;;;;;20479;6860;310281;-89
2022/05/26 18:11:27;;;;;;;0.90;0.90;;;23.10;35.90;;;;;;20697;6860;120452;-88
2022/05/26 18:13:52;;;;;;;0.80;0.80;;;22.90;35.90;;;;;;20497;6860;308605;-87
2022/05/26 18:16:18;;;;;;;0.97;0.87;;;22.90;36.60;;;;;;20734;6860;119443;-93
2022/05/26 18:18:55;;;;;;;0.93;0.90;;;22.70;36.60;;;;;;20720;6860;118085;-87
2022/05/26 18:21:20;;;;;;;1.73;1.08;;;22.40;36.80;;;;;;20499;6860;308080;-90
2022/05/26 18:23:46;;;;;;;0.90;0.90;;;22.50;37.00;;;;;;20473;6860;337525;-92
2022/05/26 18:26:11;;;;;;;0.70;0.70;;;22.70;36.90;;;;;;20502;6860;279320;-87
2022/05/26 18:28:38;;;;;;;0.93;0.93;;;22.90;37.20;;;;;;20710;6860;120315;-86
2022/05/26 18:31:02;;;;;;;1.40;0.80;;;22.80;37.10;;;;;;20501;6860;282997;-88
2022/05/26 18:33:28;;;;;;;0.80;0.77;;;22.80;37.50;;;;;;20709;6860;118041;-86
2022/05/26 18:35:55;;;;;;;0.87;0.70;;;22.30;37.50;;;;;;20708;6860;122859;-88
2022/05/26 18:38:21;;;;;;;1.67;0.90;;;22.30;37.50;;;;;;20688;6860;117480;-87
2022/05/26 18:40:47;;;;;;;0.90;0.90;;;22.00;37.70;;;;;;20490;6860;309060;-87
2022/05/26 18:43:13;;;;;;;2.03;0.90;;;22.10;38.00;;;;;;20705;6860;118385;-89
2022/05/26 18:45:40;;;;;;;1.10;1.07;;;22.10;37.90;;;;;;20497;6860;310632;-85
2022/05/26 18:48:09;;;;;;;0.90;0.90;;;22.20;37.80;;;;;;20719;6860;117570;-86
2022/05/26 18:50:35;;;;;;;1.00;1.00;;;21.90;38.20;;;;;;20704;6859;117927;-86
2022/05/26 18:53:00;;;;;;;0.80;0.80;;;21.80;38.10;;;;;;20701;6860;121868;-87
2022/05/26 18:55:27;;;;;;;1.00;1.00;;;21.40;39.30;;;;;;20709;6860;118803;-87
2022/05/26 18:57:52;;;;;;;1.42;1.10;;;21.40;39.50;;;;;;20511;6860;313590;-85
2022/05/26 19:00:19;;;;;;;0.90;0.90;;;21.60;39.50;;;;;;20707;6860;119764;-85
2022/05/26 19:02:44;;;;;;;0.80;0.80;;;21.50;39.20;;;;;;20724;6860;117917;-86
2022/05/26 19:05:09;;;;;;;1.48;0.90;;;21.30;39.20;;;;;;20512;6860;280779;-85
2022/05/26 19:07:34;;;;;;;1.53;1.10;;;21.40;39.40;;;;;;20505;6860;292276;-85
2022/05/26 19:10:00;;;;;;;1.20;0.90;;;21.70;38.90;;;;;;20505;6860;279413;-86
2022/05/26 19:12:26;;;;;;;1.08;1.00;;;21.90;38.60;;;;;;20502;6860;307203;-87